Time;durP1;ratioP1;P1;durP2;ratioP2;P2;SDS_P1;SDS_P2;PMS_P1;PMS_P2;Temp;Humidity;BMP_temperature;BMP_pressure;BME280_temperature;BME280_humidity;BME280_pressure;Samples;Min_cycle;Max_cycle;Signal;HPM_P1;HPM_P2
2023/09/23 00:01:32;;;;;;;2.03;1.00;;;12.70;99.90;;;;;;5035911;28;20189;-40
2023/09/23 00:03:58;;;;;;;2.83;1.00;;;12.70;99.90;;;;;;5040631;28;20257;-40
2023/09/23 00:06:24;;;;;;;1.80;1.00;;;12.70;99.90;;;;;;5053180;28;20218;-40
2023/09/23 00:08:50;;;;;;;2.80;1.00;;;12.70;99.90;;;;;;5034069;28;20201;-39
2023/09/23 00:11:16;;;;;;;2.03;0.97;;;12.70;99.90;;;;;;5034457;28;20188;-40
2023/09/23 00:13:42;;;;;;;3.10;1.20;;;12.80;99.90;;;;;;5030652;28;20271;-39
2023/09/23 00:16:14;;;;;;;1.60;1.10;;;12.80;99.90;;;;;;5035855;28;20174;-41
2023/09/23 00:18:40;;;;;;;2.23;1.00;;;12.90;99.90;;;;;;5042796;28;20210;-40
2023/09/23 00:21:07;;;;;;;1.87;1.00;;;13.00;99.90;;;;;;5035702;28;20184;-41
2023/09/23 00:23:34;;;;;;;1.20;1.00;;;13.00;99.90;;;;;;5034007;28;20177;-39
2023/09/23 00:26:01;;;;;;;2.03;0.80;;;13.10;99.90;;;;;;5036032;28;20196;-42
2023/09/23 00:28:30;;;;;;;0.93;0.60;;;13.10;99.90;;;;;;5035911;28;20206;-39
2023/09/23 00:31:10;;;;;;;2.60;0.83;;;13.20;99.90;;;;;;5036114;28;20192;-39
2023/09/23 00:33:39;;;;;;;1.00;0.90;;;13.20;99.90;;;;;;5035243;28;20239;-40
2023/09/23 00:36:08;;;;;;;2.33;0.90;;;13.20;99.90;;;;;;5038401;28;20646;-41
2023/09/23 00:38:37;;;;;;;2.80;1.10;;;13.20;99.90;;;;;;5051962;28;20266;-39
2023/09/23 00:41:04;;;;;;;1.27;0.80;;;13.20;99.90;;;;;;5035607;28;20203;-40
2023/09/23 00:43:32;;;;;;;2.67;0.90;;;13.10;99.90;;;;;;5033506;28;20185;-39
2023/09/23 00:45:59;;;;;;;1.33;0.90;;;13.10;99.90;;;;;;5033795;28;20177;-41
2023/09/23 00:48:26;;;;;;;2.17;1.10;;;13.00;99.90;;;;;;5034608;28;20202;-41
2023/09/23 00:50:54;;;;;;;1.87;1.00;;;12.90;99.90;;;;;;5033297;28;20186;-39
2023/09/23 00:53:22;;;;;;;0.80;0.70;;;12.90;99.90;;;;;;5039965;28;20178;-40
2023/09/23 00:55:52;;;;;;;0.87;0.80;;;12.80;99.90;;;;;;5036238;28;20196;-39
2023/09/23 00:58:22;;;;;;;1.23;0.83;;;12.70;99.90;;;;;;5035122;28;20215;-40
2023/09/23 01:00:54;;;;;;;2.90;0.93;;;12.70;99.90;;;;;;5035917;28;20181;-39
2023/09/23 01:03:20;;;;;;;1.23;0.70;;;12.70;99.90;;;;;;5032684;28;20178;-39
2023/09/23 01:05:49;;;;;;;1.00;0.90;;;12.60;99.90;;;;;;5042956;28;20177;-40
2023/09/23 01:08:21;;;;;;;1.30;0.93;;;12.60;99.90;;;;;;5046922;28;20211;-37
2023/09/23 01:10:50;;;;;;;2.17;0.90;;;12.60;99.90;;;;;;5032885;28;20252;-39
2023/09/23 01:13:22;;;;;;;2.47;0.93;;;12.50;99.90;;;;;;5049214;28;20181;-39
2023/09/23 01:15:49;;;;;;;2.57;1.10;;;12.50;99.90;;;;;;5048374;28;20227;-38
2023/09/23 01:18:15;;;;;;;1.20;0.97;;;12.40;99.90;;;;;;5038769;28;20212;-40
2023/09/23 01:20:45;;;;;;;1.77;1.10;;;12.40;99.90;;;;;;5035547;28;20178;-38
2023/09/23 01:23:12;;;;;;;1.73;0.83;;;12.30;99.90;;;;;;5041339;28;20177;-41
2023/09/23 01:25:39;;;;;;;0.97;0.90;;;12.20;99.90;;;;;;5052876;28;20192;-40
2023/09/23 01:28:11;;;;;;;2.27;1.03;;;12.10;99.90;;;;;;5028378;28;20205;-39
2023/09/23 01:30:40;;;;;;;1.40;0.90;;;12.10;99.90;;;;;;5032538;28;20212;-41
2023/09/23 01:33:12;;;;;;;1.00;0.90;;;12.00;99.90;;;;;;5035837;28;20723;-40
2023/09/23 01:35:38;;;;;;;2.03;0.87;;;11.90;99.90;;;;;;5034131;28;20201;-41
2023/09/23 01:38:06;;;;;;;1.73;0.87;;;11.90;99.90;;;;;;5023623;28;20220;-40
2023/09/23 01:40:34;;;;;;;4.57;0.90;;;11.90;99.90;;;;;;5038454;28;20192;-40
2023/09/23 01:43:01;;;;;;;0.97;0.80;;;11.90;99.90;;;;;;5053947;28;20192;-42
2023/09/23 01:45:28;;;;;;;3.20;0.90;;;11.90;99.90;;;;;;5036760;28;20184;-43
2023/09/23 01:47:57;;;;;;;2.03;0.90;;;11.90;99.90;;;;;;5028555;28;20193;-41
2023/09/23 01:50:24;;;;;;;1.33;0.97;;;11.90;99.90;;;;;;5038359;28;20187;-40
2023/09/23 01:52:50;;;;;;;1.50;1.10;;;11.80;99.90;;;;;;5046149;28;20212;-40
2023/09/23 01:55:17;;;;;;;2.17;0.90;;;11.80;99.90;;;;;;5034770;28;20181;-41
2023/09/23 01:57:44;;;;;;;1.07;0.90;;;11.70;99.90;;;;;;5038520;28;20251;-38
2023/09/23 02:00:22;;;;;;;1.33;0.90;;;11.60;99.90;;;;;;5039931;28;20185;-40
2023/09/23 02:02:53;;;;;;;1.07;0.90;;;11.70;99.90;;;;;;5034770;28;20213;-40
2023/09/23 02:05:21;;;;;;;1.50;1.10;;;11.60;99.90;;;;;;5049581;28;20190;-40
2023/09/23 02:07:50;;;;;;;1.73;0.90;;;11.60;99.90;;;;;;5032165;28;20280;-40
2023/09/23 02:10:17;;;;;;;3.23;1.00;;;11.60;99.90;;;;;;5045435;28;20211;-39
2023/09/23 02:12:44;;;;;;;1.63;0.80;;;11.60;99.90;;;;;;5027793;28;20271;-37
2023/09/23 02:15:17;;;;;;;1.00;0.90;;;11.50;99.90;;;;;;5034950;28;20184;-38
2023/09/23 02:17:47;;;;;;;1.40;1.00;;;11.50;99.90;;;;;;5051031;28;20286;-39
2023/09/23 02:20:21;;;;;;;1.70;0.83;;;11.50;99.90;;;;;;5037318;28;20194;-39
2023/09/23 02:22:53;;;;;;;1.30;0.77;;;11.40;99.90;;;;;;5039373;28;20181;-41
2023/09/23 02:25:19;;;;;;;1.27;0.80;;;11.40;99.90;;;;;;5036891;28;20197;-40
2023/09/23 02:27:46;;;;;;;1.23;1.00;;;11.40;99.90;;;;;;5047962;28;20705;-41
2023/09/23 02:30:13;;;;;;;1.00;0.90;;;11.30;99.90;;;;;;5024032;28;20191;-39
2023/09/23 02:32:41;;;;;;;1.87;1.10;;;11.30;99.90;;;;;;5044597;28;20184;-42
2023/09/23 02:35:11;;;;;;;2.07;1.10;;;11.20;99.90;;;;;;5035908;28;20188;-39
2023/09/23 02:37:39;;;;;;;3.00;1.10;;;11.20;99.90;;;;;;5037523;28;20187;-40
2023/09/23 02:40:06;;;;;;;1.73;1.03;;;11.10;99.90;;;;;;5037904;28;20184;-41
2023/09/23 02:42:32;;;;;;;1.40;0.90;;;11.10;99.90;;;;;;5033725;28;20200;-40
2023/09/23 02:44:59;;;;;;;1.30;0.90;;;11.00;99.90;;;;;;5039588;28;20176;-39
2023/09/23 02:47:25;;;;;;;1.97;1.03;;;11.00;99.90;;;;;;5039256;28;20274;-41
2023/09/23 02:49:51;;;;;;;2.40;1.20;;;10.90;99.90;;;;;;5043732;28;20225;-40
2023/09/23 02:52:16;;;;;;;2.93;0.90;;;10.90;99.90;;;;;;5031917;28;20171;-40
2023/09/23 02:54:42;;;;;;;1.03;0.90;;;10.90;99.90;;;;;;5035167;28;20215;-40
2023/09/23 02:57:12;;;;;;;4.67;1.10;;;10.90;99.90;;;;;;5044642;28;20179;-41
2023/09/23 02:59:41;;;;;;;1.27;0.80;;;10.90;99.90;;;;;;5036559;28;20218;-41
2023/09/23 03:02:08;;;;;;;1.43;0.70;;;10.80;99.90;;;;;;5033768;28;20181;-39
2023/09/23 03:04:35;;;;;;;1.70;0.80;;;10.90;99.90;;;;;;5036279;28;20270;-41
2023/09/23 03:07:02;;;;;;;1.00;0.90;;;10.90;99.90;;;;;;5042451;28;20175;-42
2023/09/23 03:09:32;;;;;;;1.07;0.90;;;10.90;99.90;;;;;;5036421;28;20262;-41
2023/09/23 03:12:00;;;;;;;1.53;0.90;;;10.80;99.90;;;;;;5024653;28;20186;-37
2023/09/23 03:14:35;;;;;;;0.93;0.80;;;10.90;99.90;;;;;;5023908;28;20233;-40
2023/09/23 03:17:04;;;;;;;1.03;0.93;;;10.80;99.90;;;;;;5049569;28;20168;-39
2023/09/23 03:19:32;;;;;;;1.00;0.87;;;10.80;99.90;;;;;;5025014;28;20275;-39
2023/09/23 03:21:59;;;;;;;1.40;0.90;;;10.70;99.90;;;;;;5044050;28;20175;-41
2023/09/23 03:24:28;;;;;;;2.70;1.10;;;10.70;99.90;;;;;;5030725;28;20190;-41
2023/09/23 03:26:56;;;;;;;0.80;0.80;;;10.70;99.90;;;;;;5054711;28;20178;-39
2023/09/23 03:29:22;;;;;;;1.40;0.90;;;10.70;99.90;;;;;;5036373;28;20208;-40
2023/09/23 03:31:49;;;;;;;1.17;1.00;;;10.60;99.90;;;;;;5052402;28;20190;-39
2023/09/23 03:34:16;;;;;;;1.63;0.90;;;10.60;99.90;;;;;;5040615;28;20178;-43
2023/09/23 03:36:44;;;;;;;3.77;0.80;;;10.60;99.90;;;;;;5039657;28;20195;-41
2023/09/23 03:39:10;;;;;;;1.90;0.97;;;10.50;99.90;;;;;;5040818;28;20206;-42
2023/09/23 03:41:37;;;;;;;0.97;0.90;;;10.50;99.90;;;;;;5035772;28;20204;-43
2023/09/23 03:44:07;;;;;;;0.70;0.70;;;10.50;99.90;;;;;;5026469;28;20231;-39
2023/09/23 03:46:34;;;;;;;1.17;1.07;;;10.40;99.90;;;;;;5037172;28;20209;-40
2023/09/23 03:49:00;;;;;;;1.00;0.70;;;10.40;99.90;;;;;;5044275;28;20197;-41
2023/09/23 03:51:26;;;;;;;1.07;0.80;;;10.30;99.90;;;;;;5040993;28;20454;-39
2023/09/23 03:53:52;;;;;;;1.63;0.83;;;10.40;99.90;;;;;;5063038;28;20285;-41
2023/09/23 03:56:24;;;;;;;1.07;0.90;;;10.40;99.90;;;;;;5043048;28;20227;-41
2023/09/23 03:58:55;;;;;;;1.63;1.27;;;10.40;99.90;;;;;;5052680;28;20211;-41
2023/09/23 04:01:24;;;;;;;1.00;0.90;;;10.40;99.90;;;;;;5036131;28;20214;-41
2023/09/23 04:03:53;;;;;;;2.17;0.90;;;10.50;99.90;;;;;;5044453;28;20178;-40
2023/09/23 04:06:19;;;;;;;0.90;0.90;;;10.40;99.90;;;;;;5026663;28;20187;-42
2023/09/23 04:08:46;;;;;;;1.23;1.00;;;10.40;99.90;;;;;;5044197;28;20201;-38
2023/09/23 04:11:15;;;;;;;0.80;0.80;;;10.40;99.90;;;;;;5030802;28;20182;-39
2023/09/23 04:13:44;;;;;;;2.03;1.03;;;10.40;99.90;;;;;;5026028;28;20265;-39
2023/09/23 04:16:11;;;;;;;1.27;0.97;;;10.40;99.90;;;;;;5035237;28;20185;-42
2023/09/23 04:18:37;;;;;;;2.50;1.13;;;10.40;99.90;;;;;;5035847;28;20224;-41
2023/09/23 04:21:03;;;;;;;0.90;0.90;;;10.40;99.90;;;;;;5036189;28;20249;-42
2023/09/23 04:23:29;;;;;;;1.23;0.90;;;10.30;99.90;;;;;;5028387;28;20186;-39
2023/09/23 04:25:56;;;;;;;2.03;0.90;;;10.30;99.90;;;;;;5039956;28;20210;-38
2023/09/23 04:28:22;;;;;;;1.80;0.97;;;10.30;99.90;;;;;;5040720;28;20212;-41
2023/09/23 04:30:55;;;;;;;2.57;1.07;;;10.20;99.90;;;;;;5035780;28;20190;-40
2023/09/23 04:33:22;;;;;;;2.40;0.70;;;10.20;99.90;;;;;;5047428;28;20193;-41
2023/09/23 04:35:51;;;;;;;3.27;1.30;;;10.20;99.90;;;;;;5053175;28;20173;-40
2023/09/23 04:38:18;;;;;;;1.77;0.80;;;10.20;99.90;;;;;;5037046;28;20241;-41
2023/09/23 04:40:46;;;;;;;1.63;0.80;;;10.30;99.90;;;;;;5044632;28;20243;-42
2023/09/23 04:43:12;;;;;;;1.70;1.10;;;10.30;99.90;;;;;;5044062;28;20197;-42
2023/09/23 04:45:38;;;;;;;2.13;1.30;;;10.20;99.90;;;;;;5055000;28;20183;-41
2023/09/23 04:48:06;;;;;;;0.90;0.67;;;10.20;99.90;;;;;;5043645;28;20195;-40
2023/09/23 04:50:32;;;;;;;1.30;0.90;;;10.20;99.90;;;;;;5041717;28;20193;-40
2023/09/23 04:52:59;;;;;;;1.80;0.80;;;10.10;99.90;;;;;;5039150;28;20181;-42
2023/09/23 04:55:28;;;;;;;1.80;1.00;;;10.10;99.90;;;;;;5060427;28;20265;-41
2023/09/23 04:57:55;;;;;;;1.10;1.00;;;10.10;99.90;;;;;;5046821;28;20251;-40
2023/09/23 05:00:22;;;;;;;2.30;0.80;;;10.10;99.90;;;;;;5050131;28;20271;-41
2023/09/23 05:02:49;;;;;;;0.80;0.80;;;10.10;99.90;;;;;;5042420;28;20193;-40
2023/09/23 05:05:20;;;;;;;1.23;0.77;;;10.10;99.90;;;;;;5062849;28;20193;-40
2023/09/23 05:07:46;;;;;;;1.50;1.00;;;10.10;99.90;;;;;;5044386;28;20200;-40
2023/09/23 05:10:13;;;;;;;1.30;0.83;;;10.10;99.90;;;;;;5033089;28;20249;-41
2023/09/23 05:12:41;;;;;;;2.10;1.13;;;10.10;99.90;;;;;;5042362;28;20240;-40
2023/09/23 05:15:10;;;;;;;1.83;0.90;;;10.10;99.90;;;;;;5043208;28;20173;-40
2023/09/23 05:17:37;;;;;;;1.07;1.07;;;10.10;99.90;;;;;;5054884;28;20178;-39
2023/09/23 05:20:12;;;;;;;1.90;1.27;;;10.10;99.90;;;;;;5045033;28;20185;-39
2023/09/23 05:22:40;;;;;;;1.70;1.10;;;10.10;99.90;;;;;;5049462;28;20242;-39
2023/09/23 05:25:07;;;;;;;1.47;1.13;;;10.10;99.90;;;;;;5046029;28;20278;-39
2023/09/23 05:27:35;;;;;;;3.57;1.10;;;10.10;99.90;;;;;;5035857;28;20182;-39
2023/09/23 05:30:03;;;;;;;2.13;0.90;;;10.10;99.90;;;;;;5055773;28;20205;-40
2023/09/23 05:32:30;;;;;;;2.77;1.00;;;10.00;99.90;;;;;;5094149;22;20400;-31
2023/09/23 05:35:00;;;;;;;1.30;1.00;;;10.00;99.90;;;;;;5041992;28;20181;-31
2023/09/23 05:37:27;;;;;;;1.20;1.07;;;10.10;99.90;;;;;;5054509;28;20175;-30
2023/09/23 05:39:53;;;;;;;0.73;0.73;;;10.00;99.90;;;;;;5044972;28;20244;-31
2023/09/23 05:42:23;;;;;;;3.43;1.20;;;10.00;99.90;;;;;;5031418;28;20197;-31
2023/09/23 05:44:50;;;;;;;1.10;1.00;;;10.00;99.90;;;;;;5037822;28;20204;-30
2023/09/23 05:47:15;;;;;;;2.37;1.23;;;10.00;99.90;;;;;;5028013;28;20183;-30
2023/09/23 05:49:42;;;;;;;1.03;0.93;;;9.90;99.90;;;;;;5032951;28;20202;-30
2023/09/23 05:52:10;;;;;;;0.97;0.90;;;9.90;99.90;;;;;;5034509;28;20193;-30
2023/09/23 05:54:36;;;;;;;3.43;1.10;;;9.90;99.90;;;;;;5047557;28;20184;-30
2023/09/23 05:57:02;;;;;;;2.57;1.20;;;10.00;99.90;;;;;;5033988;28;20225;-30
2023/09/23 05:59:27;;;;;;;1.93;0.90;;;10.00;99.90;;;;;;5030819;28;20218;-31
2023/09/23 06:01:54;;;;;;;1.13;1.03;;;10.00;99.90;;;;;;5031735;28;20244;-31
2023/09/23 06:04:19;;;;;;;1.40;1.20;;;10.00;99.90;;;;;;5030268;28;20200;-32
2023/09/23 06:06:45;;;;;;;3.10;1.17;;;10.00;99.90;;;;;;5032883;28;20651;-30
2023/09/23 06:09:11;;;;;;;1.60;1.10;;;10.10;99.90;;;;;;5033469;28;20198;-30
2023/09/23 06:11:37;;;;;;;1.43;1.30;;;10.10;99.90;;;;;;5034088;28;20244;-30
2023/09/23 06:14:03;;;;;;;2.70;1.43;;;10.10;99.90;;;;;;5032986;28;20223;-31
2023/09/23 06:16:29;;;;;;;4.10;1.27;;;10.20;99.90;;;;;;5029399;28;20218;-30
2023/09/23 06:18:55;;;;;;;2.60;1.30;;;10.20;99.90;;;;;;5040502;28;20216;-31
2023/09/23 06:21:21;;;;;;;1.50;1.10;;;10.20;99.90;;;;;;5032719;28;20182;-31
2023/09/23 06:23:46;;;;;;;2.40;1.00;;;10.30;99.90;;;;;;5031854;28;20174;-30
2023/09/23 06:26:12;;;;;;;2.83;1.40;;;10.40;99.90;;;;;;5033615;28;20178;-30
2023/09/23 06:28:38;;;;;;;2.53;1.13;;;10.40;99.90;;;;;;5029544;28;20287;-31
2023/09/23 06:31:07;;;;;;;2.13;1.30;;;10.50;99.90;;;;;;5032493;28;20193;-31
2023/09/23 06:33:33;;;;;;;1.80;1.33;;;10.50;99.90;;;;;;5029105;28;20235;-31
2023/09/23 06:36:04;;;;;;;2.53;1.27;;;10.60;99.90;;;;;;5031618;28;20215;-30
2023/09/23 06:38:31;;;;;;;2.00;1.10;;;10.70;99.90;;;;;;5030719;28;20226;-30
2023/09/23 06:40:57;;;;;;;2.40;1.20;;;10.80;99.90;;;;;;5033471;28;20182;-31
2023/09/23 06:43:23;;;;;;;3.27;1.20;;;10.90;99.90;;;;;;5065646;28;20681;-31
2023/09/23 06:45:56;;;;;;;1.93;1.20;;;11.00;99.90;;;;;;5031602;28;20191;-31
2023/09/23 06:48:28;;;;;;;1.40;1.10;;;11.10;99.90;;;;;;5050950;28;20226;-31
2023/09/23 06:51:00;;;;;;;3.97;1.70;;;11.30;99.90;;;;;;5039324;28;20189;-31
2023/09/23 06:53:27;;;;;;;2.97;1.97;;;11.40;99.90;;;;;;5016728;28;20321;-31
2023/09/23 06:55:53;;;;;;;5.47;1.60;;;11.50;99.90;;;;;;5030044;28;20204;-31
2023/09/23 06:58:19;;;;;;;3.17;1.47;;;11.50;99.90;;;;;;5032801;28;20248;-31
2023/09/23 07:00:46;;;;;;;1.63;1.30;;;11.50;99.90;;;;;;5027443;28;20213;-31
2023/09/23 07:03:13;;;;;;;2.23;1.40;;;11.60;99.90;;;;;;5031970;28;20194;-31
2023/09/23 07:05:41;;;;;;;3.47;1.50;;;11.70;99.90;;;;;;5032888;28;20185;-31
2023/09/23 07:08:07;;;;;;;2.63;1.53;;;11.80;99.90;;;;;;5033536;28;20206;-31
2023/09/23 07:10:38;;;;;;;2.93;1.30;;;11.90;99.90;;;;;;5033085;28;20185;-31
2023/09/23 07:13:04;;;;;;;2.77;1.30;;;12.00;99.90;;;;;;5029409;28;20216;-31
2023/09/23 07:15:40;;;;;;;4.47;1.33;;;12.10;99.90;;;;;;5039559;28;20190;-31
2023/09/23 07:18:07;;;;;;;1.43;1.10;;;12.10;99.90;;;;;;5047995;28;20217;-31
2023/09/23 07:20:34;;;;;;;3.03;1.27;;;12.20;99.90;;;;;;5031500;28;20205;-31
2023/09/23 07:23:02;;;;;;;1.40;1.00;;;12.40;99.90;;;;;;5016573;28;20284;-31
2023/09/23 07:25:36;;;;;;;1.90;1.30;;;12.50;99.90;;;;;;5029192;28;20240;-31
2023/09/23 07:28:03;;;;;;;2.90;1.10;;;12.60;99.90;;;;;;5030969;28;20213;-31
2023/09/23 07:30:33;;;;;;;2.07;1.30;;;12.70;99.90;;;;;;5049790;28;20218;-31
2023/09/23 07:32:59;;;;;;;2.87;1.20;;;12.80;99.90;;;;;;5024425;28;20235;-31
2023/09/23 07:35:33;;;;;;;0.80;0.80;;;12.90;99.90;;;;;;5045828;28;20193;-31
2023/09/23 07:38:01;;;;;;;2.63;1.27;;;13.00;99.90;;;;;;5024876;28;20202;-31
2023/09/23 07:40:31;;;;;;;1.20;1.10;;;13.10;99.90;;;;;;5028790;28;20174;-31
2023/09/23 07:42:57;;;;;;;1.57;1.10;;;13.20;99.90;;;;;;5023170;28;20228;-31
2023/09/23 07:45:24;;;;;;;2.20;1.17;;;13.30;99.90;;;;;;5027144;28;20178;-31
2023/09/23 07:47:50;;;;;;;1.70;1.10;;;13.50;99.90;;;;;;5022423;28;20204;-31
2023/09/23 07:50:16;;;;;;;1.53;1.00;;;13.50;99.90;;;;;;5027610;28;20178;-31
2023/09/23 07:52:42;;;;;;;1.20;0.80;;;13.60;99.90;;;;;;5030294;28;20219;-31
2023/09/23 07:55:10;;;;;;;1.07;0.80;;;13.70;99.90;;;;;;5042614;28;20174;-30
2023/09/23 07:57:36;;;;;;;1.20;1.10;;;13.80;99.90;;;;;;5022992;28;20183;-31
2023/09/23 08:00:02;;;;;;;1.33;0.93;;;13.90;99.90;;;;;;5032176;28;20297;-30
2023/09/23 08:02:38;;;;;;;1.10;0.90;;;14.00;99.90;;;;;;5039195;28;20196;-31
2023/09/23 08:05:05;;;;;;;1.47;1.00;;;14.10;99.90;;;;;;5007594;28;20213;-31
2023/09/23 08:07:32;;;;;;;2.90;0.97;;;14.30;99.90;;;;;;5026254;28;20186;-31
2023/09/23 08:09:59;;;;;;;0.87;0.87;;;14.30;99.90;;;;;;5051550;28;20280;-31
2023/09/23 08:12:27;;;;;;;2.30;0.90;;;14.40;99.90;;;;;;5025932;28;20282;-29
2023/09/23 08:14:53;;;;;;;1.20;1.00;;;14.50;99.90;;;;;;5025014;28;20713;-31
2023/09/23 08:17:19;;;;;;;0.87;0.80;;;14.60;99.90;;;;;;5026468;28;20181;-32
2023/09/23 08:19:50;;;;;;;1.20;0.80;;;14.70;99.90;;;;;;5032539;28;20201;-33
2023/09/23 08:22:19;;;;;;;2.53;1.00;;;14.80;99.90;;;;;;5033881;28;20275;-30
2023/09/23 08:24:48;;;;;;;2.40;1.10;;;15.00;99.90;;;;;;5038516;28;20208;-31
2023/09/23 08:27:14;;;;;;;1.60;1.03;;;15.10;99.90;;;;;;5023023;28;20205;-32
2023/09/23 08:29:43;;;;;;;1.33;0.70;;;15.20;99.90;;;;;;5054300;28;20207;-30
2023/09/23 08:32:11;;;;;;;1.00;0.77;;;15.30;99.90;;;;;;5047757;28;20180;-30
2023/09/23 08:34:41;;;;;;;1.37;0.80;;;15.40;99.90;;;;;;5021812;28;20202;-32
2023/09/23 08:37:09;;;;;;;1.47;0.80;;;15.60;99.90;;;;;;5039650;28;20250;-31
2023/09/23 08:39:37;;;;;;;0.87;0.73;;;15.60;99.90;;;;;;5030082;28;20217;-31
2023/09/23 08:42:07;;;;;;;1.90;0.70;;;15.70;99.90;;;;;;5031627;28;20181;-31
2023/09/23 08:44:34;;;;;;;2.10;0.80;;;15.60;99.90;;;;;;5030307;28;20228;-30
2023/09/23 08:47:02;;;;;;;4.33;0.87;;;15.60;99.90;;;;;;5042849;28;20185;-30
2023/09/23 08:49:32;;;;;;;0.83;0.73;;;15.70;99.90;;;;;;5025967;28;20198;-31
2023/09/23 08:52:03;;;;;;;1.67;0.93;;;15.80;99.90;;;;;;5024738;28;20205;-31
2023/09/23 08:54:31;;;;;;;2.00;0.97;;;15.70;99.90;;;;;;5039671;28;20194;-30
2023/09/23 08:56:58;;;;;;;2.10;1.00;;;15.70;99.90;;;;;;5032262;28;20197;-31
2023/09/23 08:59:27;;;;;;;1.97;0.80;;;15.60;99.90;;;;;;5037168;28;20213;-30
2023/09/23 09:01:54;;;;;;;1.63;1.00;;;15.60;99.90;;;;;;5024142;28;20187;-30
2023/09/23 09:04:20;;;;;;;1.10;0.80;;;15.50;99.90;;;;;;5048039;28;20293;-31
2023/09/23 09:06:50;;;;;;;3.60;1.40;;;15.50;99.90;;;;;;5022398;28;20711;-31
2023/09/23 09:09:17;;;;;;;1.07;0.90;;;15.60;99.90;;;;;;5025528;28;20207;-30
2023/09/23 09:11:54;;;;;;;1.77;0.80;;;15.50;99.90;;;;;;5016762;28;20333;-30
2023/09/23 09:14:20;;;;;;;1.73;0.97;;;15.50;99.90;;;;;;5026502;28;20181;-30
2023/09/23 09:16:45;;;;;;;1.00;0.73;;;15.40;99.90;;;;;;5023100;28;20185;-30
2023/09/23 09:19:11;;;;;;;1.23;0.83;;;15.40;99.90;;;;;;5047188;28;20206;-30
2023/09/23 09:21:37;;;;;;;2.23;0.90;;;15.50;99.90;;;;;;5022314;28;20214;-30
2023/09/23 09:24:04;;;;;;;2.23;0.90;;;15.50;99.90;;;;;;5034302;28;20217;-30
2023/09/23 09:26:31;;;;;;;0.90;0.80;;;15.50;99.90;;;;;;5027491;28;20178;-31
2023/09/23 09:28:58;;;;;;;2.07;1.00;;;15.60;99.90;;;;;;5026245;28;20331;-31
2023/09/23 09:31:33;;;;;;;1.43;0.80;;;15.80;99.90;;;;;;5029874;28;20198;-30
2023/09/23 09:34:24;;;;;;;2.70;1.00;;;15.80;99.90;;;;;;5022505;28;20193;-30
2023/09/23 09:36:57;;;;;;;3.73;1.07;;;15.90;99.90;;;;;;5022515;28;20193;-31
2023/09/23 09:39:32;;;;;;;1.13;0.73;;;16.00;99.90;;;;;;5024042;28;20221;-32
2023/09/23 09:42:00;;;;;;;2.50;1.20;;;16.20;99.90;;;;;;5032199;28;20191;-31
2023/09/23 09:44:29;;;;;;;1.55;0.70;;;16.30;99.90;;;;;;5039902;28;20217;-30
2023/09/23 09:47:00;;;;;;;3.80;0.80;;;16.40;99.90;;;;;;5027015;28;20186;-32
2023/09/23 09:49:28;;;;;;;1.73;0.80;;;16.60;99.90;;;;;;5038373;28;20217;-30
2023/09/23 09:51:57;;;;;;;2.15;0.70;;;16.70;99.90;;;;;;5028193;28;20190;-31
2023/09/23 09:54:31;;;;;;;2.38;0.90;;;16.60;99.90;;;;;;5021058;28;20233;-31
2023/09/23 09:57:00;;;;;;;1.80;1.00;;;16.60;99.90;;;;;;5021497;28;20185;-31
2023/09/23 09:59:32;;;;;;;1.20;0.70;;;16.50;99.90;;;;;;5020928;28;20217;-31
2023/09/23 10:02:00;;;;;;;1.13;0.50;;;16.60;99.90;;;;;;5011345;28;20252;-32
2023/09/23 10:04:32;;;;;;;1.85;0.90;;;16.70;99.90;;;;;;5029361;28;20188;-32
2023/09/23 10:06:58;;;;;;;1.17;0.88;;;16.70;99.90;;;;;;5044977;28;20178;-32
2023/09/23 10:09:29;;;;;;;1.63;0.88;;;16.80;99.90;;;;;;5028184;28;20205;-31
2023/09/23 10:11:58;;;;;;;2.60;0.73;;;16.80;99.90;;;;;;5030578;28;20200;-31
2023/09/23 10:14:30;;;;;;;1.10;0.70;;;16.80;99.90;;;;;;5041987;28;20194;-32
2023/09/23 10:17:01;;;;;;;1.00;0.80;;;16.90;99.90;;;;;;5043061;28;20193;-32
2023/09/23 10:19:32;;;;;;;3.45;0.98;;;16.80;99.90;;;;;;5049198;28;20238;-32
2023/09/23 10:22:21;;;;;;;1.45;0.80;;;16.90;99.90;;;;;;5026742;28;20171;-32
2023/09/23 10:25:04;;;;;;;1.60;0.90;;;17.20;99.90;;;;;;5047746;28;20178;-32
2023/09/23 10:27:36;;;;;;;2.20;0.90;;;17.30;99.90;;;;;;5045188;28;20186;-32
2023/09/23 10:30:06;;;;;;;1.25;0.80;;;17.50;99.90;;;;;;5054307;28;20186;-32
2023/09/23 10:32:32;;;;;;;1.48;0.98;;;17.70;99.90;;;;;;5044713;28;20217;-32
2023/09/23 10:35:00;;;;;;;1.65;0.90;;;17.80;99.90;;;;;;5047317;28;20244;-32
2023/09/23 10:37:32;;;;;;;2.25;1.00;;;17.70;99.90;;;;;;5068752;28;20240;-32
2023/09/23 10:40:12;;;;;;;3.28;0.98;;;17.60;99.90;;;;;;5045103;28;20198;-32
2023/09/23 10:42:40;;;;;;;2.92;1.08;;;17.50;99.90;;;;;;5045884;28;20168;-31
2023/09/23 10:45:08;;;;;;;1.83;0.90;;;17.40;99.90;;;;;;5035942;28;20170;-32
2023/09/23 10:47:39;;;;;;;1.00;0.82;;;17.40;99.90;;;;;;5033879;28;20186;-31
2023/09/23 10:50:10;;;;;;;1.80;0.80;;;17.60;99.90;;;;;;5043396;28;20193;-31
2023/09/23 10:53:01;;;;;;;1.20;0.90;;;17.90;99.90;;;;;;5046970;28;20173;-32
2023/09/23 10:55:34;;;;;;;1.45;0.90;;;18.00;99.90;;;;;;5038944;28;20217;-31
2023/09/23 10:58:04;;;;;;;1.38;1.00;;;17.90;99.90;;;;;;5074557;28;20197;-32
2023/09/23 11:00:36;;;;;;;3.33;0.90;;;18.00;99.90;;;;;;5059977;28;20181;-32
2023/09/23 11:03:18;;;;;;;1.50;0.90;;;18.10;99.90;;;;;;5060076;28;20246;-32
2023/09/23 11:05:48;;;;;;;1.27;0.73;;;17.90;99.90;;;;;;5042408;28;20184;-32
2023/09/23 11:08:19;;;;;;;2.03;1.00;;;17.70;99.90;;;;;;5052146;28;20288;-32
2023/09/23 11:10:48;;;;;;;2.28;1.08;;;17.70;99.90;;;;;;5057667;28;20189;-32
2023/09/23 11:13:21;;;;;;;1.38;0.85;;;17.70;99.90;;;;;;5041022;28;20652;-31
2023/09/23 11:15:51;;;;;;;1.67;0.80;;;17.80;99.90;;;;;;5059831;28;20180;-32
2023/09/23 11:18:20;;;;;;;1.10;0.80;;;17.90;99.90;;;;;;5058539;28;20205;-31
2023/09/23 11:20:52;;;;;;;2.83;0.98;;;18.20;99.90;;;;;;5035793;28;20187;-32
2023/09/23 11:23:32;;;;;;;4.90;1.25;;;18.50;99.90;;;;;;5055610;28;20277;-32
2023/09/23 11:25:59;;;;;;;1.27;0.63;;;18.70;99.90;;;;;;5032829;28;20203;-32
2023/09/23 11:28:26;;;;;;;0.80;0.70;;;18.60;99.90;;;;;;5063855;28;20247;-32
2023/09/23 11:30:55;;;;;;;0.80;0.65;;;18.50;99.90;;;;;;5042212;28;20223;-32
2023/09/23 11:33:27;;;;;;;2.10;0.98;;;18.40;99.90;;;;;;5045016;28;20292;-32
2023/09/23 11:36:00;;;;;;;1.38;0.68;;;18.20;99.90;;;;;;5078772;28;20219;-32
2023/09/23 11:38:26;;;;;;;0.98;0.80;;;18.10;99.90;;;;;;5048051;28;20212;-31
2023/09/23 11:40:54;;;;;;;2.33;1.02;;;18.10;99.90;;;;;;5057175;28;20302;-32
2023/09/23 11:43:22;;;;;;;1.92;0.90;;;18.00;99.90;;;;;;5044450;28;20199;-31
2023/09/23 11:45:50;;;;;;;2.13;1.10;;;17.90;99.90;;;;;;5046326;28;20172;-32
2023/09/23 11:48:22;;;;;;;3.25;1.02;;;18.00;99.90;;;;;;5041771;28;20240;-32
2023/09/23 11:50:51;;;;;;;2.55;1.20;;;18.10;99.90;;;;;;5062645;28;20754;-32
2023/09/23 11:53:21;;;;;;;2.42;1.45;;;18.00;99.90;;;;;;5050236;28;20280;-32
2023/09/23 11:55:52;;;;;;;3.30;1.10;;;17.90;99.90;;;;;;5036205;28;20192;-31
2023/09/23 11:58:20;;;;;;;1.23;0.88;;;17.80;99.90;;;;;;5048860;28;20212;-31
2023/09/23 12:00:47;;;;;;;2.42;0.95;;;17.70;99.90;;;;;;5033248;28;20173;-31
2023/09/23 12:03:18;;;;;;;2.45;0.85;;;17.50;99.90;;;;;;5043554;28;20174;-32
2023/09/23 12:05:46;;;;;;;1.23;0.80;;;17.40;99.90;;;;;;5054142;28;20203;-32
2023/09/23 12:08:19;;;;;;;1.38;0.95;;;17.50;99.90;;;;;;5056353;28;20212;-31
2023/09/23 12:10:55;;;;;;;1.15;0.90;;;17.80;99.90;;;;;;5056162;28;20243;-32
2023/09/23 12:13:24;;;;;;;1.10;0.80;;;18.10;99.90;;;;;;5054742;28;20235;-32
2023/09/23 12:15:54;;;;;;;2.72;0.82;;;18.40;99.90;;;;;;5056988;28;20181;-31
2023/09/23 12:18:25;;;;;;;1.73;0.70;;;18.40;99.90;;;;;;5041893;28;20288;-31
2023/09/23 12:20:53;;;;;;;1.48;0.90;;;18.50;99.90;;;;;;5048207;28;20184;-31
2023/09/23 12:23:21;;;;;;;1.48;0.90;;;18.50;99.90;;;;;;5044494;28;20177;-31
2023/09/23 12:25:47;;;;;;;2.13;0.80;;;18.40;99.90;;;;;;5042757;28;20174;-31
2023/09/23 12:28:13;;;;;;;1.50;0.77;;;18.20;99.90;;;;;;5042062;28;20202;-30
2023/09/23 12:30:44;;;;;;;1.88;0.90;;;18.10;99.90;;;;;;5050436;28;20235;-31
2023/09/23 12:33:11;;;;;;;1.55;0.75;;;18.00;99.90;;;;;;5042168;28;20193;-31
2023/09/23 12:35:40;;;;;;;1.55;0.90;;;17.80;99.90;;;;;;5042631;28;20188;-31
2023/09/23 12:38:10;;;;;;;1.33;0.80;;;17.60;99.90;;;;;;5058699;28;20216;-30
2023/09/23 12:40:37;;;;;;;2.90;0.93;;;17.60;99.90;;;;;;5047889;28;20180;-31
2023/09/23 12:43:03;;;;;;;1.27;0.70;;;17.70;99.90;;;;;;5042430;28;20177;-31
2023/09/23 12:45:29;;;;;;;0.70;0.63;;;17.70;99.90;;;;;;5038106;28;20247;-32
2023/09/23 12:47:57;;;;;;;2.53;0.95;;;17.70;99.90;;;;;;5045181;28;20220;-31
2023/09/23 12:50:24;;;;;;;0.70;0.70;;;17.80;99.90;;;;;;5046158;28;20244;-31
2023/09/23 12:52:50;;;;;;;2.22;0.77;;;17.80;99.90;;;;;;5042246;28;20343;-31
2023/09/23 12:55:17;;;;;;;1.30;1.00;;;17.90;99.90;;;;;;5037922;28;20177;-30